createdAt,value
2018-03-26T00:00:10.315Z,2.48
2018-03-26T00:01:09.295Z,3.12
2018-03-26T00:02:12.087Z,2.20
2018-03-26T00:03:09.307Z,2.68
2018-03-26T00:04:09.215Z,3.44
2018-03-26T00:05:09.323Z,3.92
2018-03-26T00:06:09.339Z,4.12
2018-03-26T00:07:09.341Z,3.52
2018-03-26T00:08:09.360Z,3.60
2018-03-26T00:09:09.309Z,5.36
2018-03-26T00:10:09.370Z,3.04
2018-03-26T00:11:09.376Z,2.88
2018-03-26T00:12:09.377Z,2.44
2018-03-26T00:13:09.279Z,2.92
2018-03-26T00:14:09.292Z,3.08
2018-03-26T00:15:09.300Z,3.04
2018-03-26T00:16:09.297Z,1.96
2018-03-26T00:17:09.331Z,2.84
2018-03-26T00:18:09.309Z,3.04
2018-03-26T00:19:09.331Z,2.68
2018-03-26T00:20:09.339Z,3.24
2018-03-26T00:21:09.329Z,3.00
2018-03-26T00:22:09.354Z,2.48
2018-03-26T00:23:09.362Z,1.96
2018-03-26T00:24:09.353Z,1.88
2018-03-26T00:25:09.377Z,1.20
2018-03-26T00:26:09.385Z,2.04
2018-03-26T00:27:09.289Z,2.00
2018-03-26T00:28:09.281Z,1.16
2018-03-26T00:29:09.289Z,1.56
2018-03-26T00:30:09.426Z,1.32
2018-03-26T00:31:09.308Z,1.08
2018-03-26T00:32:09.330Z,1.36
2018-03-26T00:33:09.326Z,0.16
2018-03-26T00:34:09.365Z,1.88
2018-03-26T00:35:09.337Z,1.72
2018-03-26T00:36:09.343Z,2.96
2018-03-26T00:37:09.358Z,1.84
2018-03-26T00:38:09.352Z,1.84
2018-03-26T00:39:09.365Z,1.32
2018-03-26T00:40:09.369Z,1.44
2018-03-26T00:41:09.389Z,1.52
2018-03-26T00:42:09.286Z,0.92
2018-03-26T00:43:09.398Z,1.32
2018-03-26T00:44:09.306Z,1.56
2018-03-26T00:45:09.319Z,1.72
2018-03-26T00:46:09.321Z,0.88
2018-03-26T00:47:09.359Z,1.16
2018-03-26T00:48:09.324Z,0.96
2018-03-26T00:49:09.338Z,0.88
2018-03-26T00:50:09.334Z,0.92
2018-03-26T00:51:09.354Z,1.16
2018-03-26T00:52:09.383Z,1.12
2018-03-26T00:53:09.366Z,0.44
2018-03-26T00:54:09.378Z,0.64
2018-03-26T00:55:09.390Z,0.12
2018-03-26T00:56:09.380Z,0.88
2018-03-26T00:57:09.285Z,0.08
2018-03-26T00:58:09.193Z,0.52
2018-03-26T00:59:09.198Z,0.80
2018-03-26T01:00:10.335Z,0.44
2018-03-26T01:01:09.314Z,0.12
2018-03-26T01:02:09.221Z,0.08
2018-03-26T01:03:09.233Z,0.20
2018-03-26T01:04:09.239Z,0.28
2018-03-26T01:05:09.353Z,0.92
2018-03-26T01:06:09.350Z,0.36
2018-03-26T01:07:09.370Z,0.76
2018-03-26T01:08:09.369Z,0.72
2018-03-26T01:09:09.370Z,1.40
2018-03-26T01:10:09.404Z,0.52
2018-03-26T01:11:09.388Z,0.88
2018-03-26T01:12:09.306Z,1.16
2018-03-26T01:13:09.302Z,1.56
2018-03-26T01:14:09.310Z,0.88
2018-03-26T01:15:09.321Z,0.96
2018-03-26T01:16:09.325Z,0.60
2018-03-26T01:17:09.329Z,1.00
2018-03-26T01:18:09.350Z,0.72
2018-03-26T01:19:09.344Z,1.12
2018-03-26T01:20:09.349Z,0.88
2018-03-26T01:21:09.370Z,1.04
2018-03-26T01:22:09.369Z,0.60
2018-03-26T01:23:09.374Z,0.24
2018-03-26T01:24:09.282Z,0.12
2018-03-26T01:25:09.287Z,0.00
2018-03-26T01:26:09.297Z,0.00
2018-03-26T01:27:09.299Z,0.00
2018-03-26T01:28:09.371Z,0.00
2018-03-26T01:29:09.312Z,0.00
2018-03-26T01:30:09.326Z,0.00
2018-03-26T01:31:09.239Z,0.04
2018-03-26T01:32:09.343Z,0.00
2018-03-26T01:33:09.237Z,0.08
2018-03-26T01:34:09.356Z,0.08
2018-03-26T01:35:09.353Z,0.00
2018-03-26T01:36:09.374Z,0.20
2018-03-26T01:37:09.378Z,0.44
2018-03-26T01:38:09.377Z,0.44
2018-03-26T01:39:09.389Z,0.32
2018-03-26T01:40:09.402Z,0.08
2018-03-26T01:41:09.259Z,0.00
2018-03-26T01:42:09.425Z,0.36
2018-03-26T01:43:09.338Z,0.48
2018-03-26T01:44:09.335Z,0.36
2018-03-26T01:45:09.330Z,0.00
2018-03-26T01:46:22.428Z,0.00
2018-03-26T01:47:19.313Z,0.00
2018-03-26T01:48:28.711Z,0.00
2018-03-26T01:49:21.293Z,0.00
2018-03-26T01:50:22.365Z,0.00
2018-03-26T01:51:21.629Z,0.00
2018-03-26T01:52:23.716Z,0.00
2018-03-26T01:53:25.097Z,0.00
2018-03-26T01:54:22.269Z,0.00
2018-03-26T01:55:09.407Z,0.00
2018-03-26T01:56:09.417Z,0.00
2018-03-26T01:57:09.318Z,0.00
2018-03-26T01:58:09.326Z,0.00
2018-03-26T01:59:09.330Z,0.00
2018-03-26T02:00:10.578Z,0.08
2018-03-26T02:01:09.350Z,0.28
2018-03-26T02:02:09.353Z,0.00
2018-03-26T02:03:09.377Z,0.00
2018-03-26T02:04:09.373Z,0.00
2018-03-26T02:05:09.378Z,0.00
2018-03-26T02:06:09.388Z,0.00
2018-03-26T02:07:09.396Z,0.00
2018-03-26T02:08:09.406Z,0.00
2018-03-26T02:09:09.517Z,0.00
2018-03-26T02:10:21.795Z,0.00
2018-03-26T02:11:24.871Z,0.00
2018-03-26T02:12:22.714Z,0.00
2018-03-26T02:13:25.988Z,0.00
2018-03-26T02:14:23.021Z,0.00
2018-03-26T02:15:14.131Z,0.00
2018-03-26T02:16:09.365Z,0.00
2018-03-26T02:17:09.353Z,0.00
2018-03-26T02:18:09.371Z,0.00
2018-03-26T02:19:09.372Z,0.00
2018-03-26T02:20:09.381Z,0.00
2018-03-26T02:21:09.389Z,0.00
2018-03-26T02:22:09.746Z,0.00
2018-03-26T02:23:09.402Z,0.00
2018-03-26T02:24:09.405Z,0.00
2018-03-26T02:25:09.420Z,0.00
2018-03-26T02:26:09.419Z,0.00
2018-03-26T02:27:09.333Z,0.24
2018-03-26T02:28:09.234Z,0.32
2018-03-26T02:29:09.346Z,1.04
2018-03-26T02:30:09.360Z,0.88
2018-03-26T02:31:09.264Z,0.72
2018-03-26T02:32:09.370Z,0.56
2018-03-26T02:33:09.278Z,0.56
2018-03-26T02:34:09.271Z,0.36
2018-03-26T02:35:09.292Z,0.56
2018-03-26T02:36:09.298Z,0.28
2018-03-26T02:37:09.302Z,0.20
2018-03-26T02:38:09.408Z,0.16
2018-03-26T02:39:09.430Z,0.44
2018-03-26T02:40:09.422Z,0.84
2018-03-26T02:41:09.430Z,0.44
2018-03-26T02:42:09.446Z,0.60
2018-03-26T02:43:09.100Z,0.48
2018-03-26T02:44:09.355Z,0.48
2018-03-26T02:45:09.361Z,0.48
2018-03-26T02:46:09.371Z,0.08
2018-03-26T02:47:09.372Z,0.08
2018-03-26T02:48:09.279Z,0.20
2018-03-26T02:49:09.505Z,0.60
2018-03-26T02:50:09.394Z,0.24
2018-03-26T02:51:09.405Z,0.08
2018-03-26T02:52:09.409Z,0.00
2018-03-26T02:53:09.414Z,0.00
2018-03-26T02:54:09.430Z,0.00
2018-03-26T02:55:09.434Z,0.64
2018-03-26T02:56:09.444Z,1.04
2018-03-26T02:57:09.449Z,0.32
2018-03-26T02:58:09.377Z,0.08
2018-03-26T02:59:09.358Z,0.36
2018-03-26T03:00:10.492Z,0.44
2018-03-26T03:01:09.391Z,0.40
2018-03-26T03:02:09.290Z,0.24
2018-03-26T03:03:09.390Z,0.44
2018-03-26T03:04:09.402Z,0.72
2018-03-26T03:05:09.405Z,0.28
2018-03-26T03:06:09.412Z,0.52
2018-03-26T03:07:09.421Z,0.44
2018-03-26T03:08:11.650Z,0.52
2018-03-26T03:09:09.424Z,0.40
2018-03-26T03:10:09.442Z,0.92
2018-03-26T03:11:09.450Z,0.60
2018-03-26T03:12:09.448Z,1.08
2018-03-26T03:13:09.355Z,0.32
2018-03-26T03:14:09.361Z,0.48
2018-03-26T03:15:09.374Z,0.28
2018-03-26T03:16:09.373Z,0.20
2018-03-26T03:17:09.384Z,0.32
2018-03-26T03:18:09.389Z,0.20
2018-03-26T03:19:09.412Z,0.80
2018-03-26T03:20:09.435Z,0.16
2018-03-26T03:21:09.304Z,0.28
2018-03-26T03:22:09.418Z,0.04
2018-03-26T03:23:09.328Z,0.08
2018-03-26T03:24:09.453Z,0.08
2018-03-26T03:25:09.447Z,0.44
2018-03-26T03:26:09.353Z,0.04
2018-03-26T03:27:09.451Z,0.32
2018-03-26T03:28:09.366Z,0.48
2018-03-26T03:29:09.365Z,0.20
2018-03-26T03:30:09.382Z,0.04
2018-03-26T03:31:09.379Z,0.60
2018-03-26T03:32:09.440Z,0.24
2018-03-26T03:33:09.398Z,0.04
2018-03-26T03:34:09.406Z,0.08
2018-03-26T03:35:09.408Z,0.04
2018-03-26T03:36:09.426Z,0.12
2018-03-26T03:37:09.429Z,0.04
2018-03-26T03:38:09.440Z,0.28
2018-03-26T03:39:09.446Z,0.00
2018-03-26T03:40:09.449Z,0.00
2018-03-26T03:41:09.454Z,0.00
2018-03-26T03:42:09.382Z,0.04
2018-03-26T03:43:09.380Z,0.12
2018-03-26T03:44:09.380Z,0.00
2018-03-26T03:45:09.382Z,0.00
2018-03-26T03:46:09.398Z,0.24
2018-03-26T03:47:09.394Z,0.36
2018-03-26T03:48:09.402Z,0.08
2018-03-26T03:49:09.418Z,0.04
2018-03-26T03:50:09.418Z,0.00
2018-03-26T03:51:09.422Z,0.08
2018-03-26T03:52:09.429Z,0.04
2018-03-26T03:53:09.433Z,0.28
2018-03-26T03:54:09.458Z,0.68
2018-03-26T03:55:09.459Z,0.44
2018-03-26T03:56:09.466Z,0.40
2018-03-26T03:57:09.466Z,0.16
2018-03-26T03:58:09.374Z,0.00
2018-03-26T03:59:09.391Z,0.44
2018-03-26T04:00:10.560Z,0.32
2018-03-26T04:01:09.398Z,0.52
2018-03-26T04:02:09.410Z,0.60
2018-03-26T04:03:09.410Z,0.36
2018-03-26T04:04:09.419Z,0.44
2018-03-26T04:05:09.435Z,0.32
2018-03-26T04:06:09.430Z,0.36
2018-03-26T04:07:12.319Z,0.00
2018-03-26T04:08:09.458Z,0.00
2018-03-26T04:09:09.462Z,0.00
2018-03-26T04:10:09.462Z,0.00
2018-03-26T04:11:09.478Z,0.00
2018-03-26T04:12:09.479Z,0.00
2018-03-26T04:13:09.382Z,0.00
2018-03-26T04:14:09.385Z,0.00
2018-03-26T04:15:09.403Z,0.00
2018-03-26T04:16:09.316Z,0.00
2018-03-26T04:17:09.413Z,0.00
2018-03-26T04:18:09.427Z,0.00
2018-03-26T04:19:09.425Z,0.00
2018-03-26T04:20:09.457Z,0.00
2018-03-26T04:21:09.444Z,0.00
2018-03-26T04:22:09.462Z,0.00
2018-03-26T04:23:09.453Z,0.00
2018-03-26T04:24:09.467Z,0.00
2018-03-26T04:25:09.480Z,0.00
2018-03-26T04:26:09.491Z,0.00
2018-03-26T04:27:09.490Z,0.00
2018-03-26T04:28:09.394Z,0.56
2018-03-26T04:29:09.393Z,0.16
2018-03-26T04:30:09.406Z,0.48
2018-03-26T04:31:09.418Z,0.12
2018-03-26T04:32:09.413Z,0.28
2018-03-26T04:33:09.429Z,0.04
2018-03-26T04:34:09.432Z,0.00
2018-03-26T04:35:09.436Z,0.00
2018-03-26T04:36:09.487Z,0.00
2018-03-26T04:37:09.444Z,0.00
2018-03-26T04:38:09.454Z,0.08
2018-03-26T04:39:09.470Z,0.04
2018-03-26T04:40:09.475Z,0.80
2018-03-26T04:41:09.475Z,0.16
2018-03-26T04:42:09.504Z,0.28
2018-03-26T04:43:09.389Z,0.28
2018-03-26T04:44:09.397Z,0.44
2018-03-26T04:45:09.410Z,0.00
2018-03-26T04:46:09.312Z,0.00
2018-03-26T04:47:09.323Z,0.00
2018-03-26T04:48:09.434Z,0.00
2018-03-26T04:49:09.434Z,0.00
2018-03-26T04:50:09.445Z,0.00
2018-03-26T04:51:09.449Z,0.00
2018-03-26T04:52:09.466Z,0.00
2018-03-26T04:53:09.474Z,0.00
2018-03-26T04:54:10.820Z,0.20
2018-03-26T04:55:09.490Z,0.08
2018-03-26T04:56:09.489Z,0.08
2018-03-26T04:57:09.504Z,0.16
2018-03-26T04:58:09.406Z,0.00
2018-03-26T04:59:09.306Z,0.00
2018-03-26T05:00:10.546Z,0.00
2018-03-26T05:01:09.428Z,0.00
2018-03-26T05:02:09.435Z,0.04
2018-03-26T05:03:09.438Z,0.00
2018-03-26T05:04:12.507Z,0.00
2018-03-26T05:05:09.444Z,0.00
2018-03-26T05:06:09.473Z,0.04
2018-03-26T05:07:09.463Z,0.48
2018-03-26T05:08:09.470Z,0.04
2018-03-26T05:09:09.386Z,0.00
2018-03-26T05:10:10.611Z,0.04
2018-03-26T05:11:09.500Z,0.00
2018-03-26T05:12:09.509Z,0.04
2018-03-26T05:13:09.502Z,0.08
2018-03-26T05:14:09.933Z,0.28
2018-03-26T05:15:09.422Z,0.00
2018-03-26T05:16:09.443Z,0.00
2018-03-26T05:17:09.337Z,0.28
2018-03-26T05:18:09.965Z,0.68
2018-03-26T05:19:10.101Z,0.44
2018-03-26T05:20:10.196Z,0.20
2018-03-26T05:21:10.250Z,0.08
2018-03-26T05:22:11.096Z,0.12
2018-03-26T05:23:10.105Z,0.12
2018-03-26T05:24:10.163Z,0.36
2018-03-26T05:25:10.369Z,0.04
2018-03-26T05:26:09.332Z,0.00
2018-03-26T05:27:09.562Z,0.00
2018-03-26T05:28:09.423Z,0.00
2018-03-26T05:29:11.630Z,0.16
2018-03-26T05:30:12.743Z,0.96
2018-03-26T05:31:10.304Z,0.76
2018-03-26T05:32:09.661Z,0.00
2018-03-26T05:33:09.502Z,0.12
2018-03-26T05:34:09.457Z,0.16
2018-03-26T05:35:09.469Z,0.04
2018-03-26T05:36:09.474Z,0.64
2018-03-26T05:37:09.474Z,0.12
2018-03-26T05:38:09.501Z,0.00
2018-03-26T05:39:09.486Z,0.04
2018-03-26T05:40:12.402Z,0.08
2018-03-26T05:41:09.517Z,0.36
2018-03-26T05:42:09.512Z,0.40
2018-03-26T05:43:09.414Z,0.36
2018-03-26T05:44:09.426Z,0.08
2018-03-26T05:45:09.358Z,0.12
2018-03-26T05:46:09.442Z,0.08
2018-03-26T05:47:09.447Z,0.04
2018-03-26T05:48:09.463Z,0.44
2018-03-26T05:49:09.207Z,0.04
2018-03-26T05:50:09.469Z,0.04
2018-03-26T05:51:09.479Z,0.00
2018-03-26T05:52:09.483Z,0.00
2018-03-26T05:53:09.490Z,0.00
2018-03-26T05:54:09.503Z,0.00
2018-03-26T05:55:09.508Z,0.00
2018-03-26T05:56:09.515Z,0.08
2018-03-26T05:57:09.531Z,0.08
2018-03-26T05:58:09.530Z,0.04
2018-03-26T05:59:09.421Z,0.16
2018-03-26T06:00:11.635Z,0.00
2018-03-26T06:01:09.453Z,0.04
2018-03-26T06:02:09.513Z,0.28
2018-03-26T06:03:09.466Z,0.36
2018-03-26T06:04:09.474Z,0.00
2018-03-26T06:05:09.484Z,0.00
2018-03-26T06:06:09.489Z,0.08
2018-03-26T06:07:09.498Z,0.08
2018-03-26T06:08:09.498Z,0.68
2018-03-26T06:09:09.512Z,0.56
2018-03-26T06:10:09.521Z,0.76
2018-03-26T06:11:09.519Z,0.72
2018-03-26T06:12:09.537Z,0.20
2018-03-26T06:13:09.533Z,0.84
2018-03-26T06:14:09.437Z,0.12
2018-03-26T06:15:10.691Z,0.36
2018-03-26T06:16:09.452Z,1.00
2018-03-26T06:17:09.491Z,0.20
2018-03-26T06:18:09.461Z,0.32
2018-03-26T06:19:10.450Z,0.20
2018-03-26T06:20:09.221Z,0.20
2018-03-26T06:21:09.490Z,0.92
2018-03-26T06:22:09.495Z,0.48
2018-03-26T06:23:09.533Z,1.04
2018-03-26T06:24:09.518Z,1.48
2018-03-26T06:25:09.537Z,1.08
2018-03-26T06:26:11.744Z,0.96
2018-03-26T06:27:09.432Z,0.96
2018-03-26T06:28:09.542Z,0.80
2018-03-26T06:29:09.451Z,1.68
2018-03-26T06:30:09.454Z,0.60
2018-03-26T06:31:09.453Z,1.52
2018-03-26T06:32:09.461Z,1.32
2018-03-26T06:33:09.531Z,1.64
2018-03-26T06:34:09.494Z,0.72
2018-03-26T06:35:09.498Z,0.24
2018-03-26T06:36:09.398Z,1.08
2018-03-26T06:37:09.410Z,1.32
2018-03-26T06:38:09.405Z,1.48
2018-03-26T06:39:09.414Z,2.28
2018-03-26T06:40:09.465Z,0.80
2018-03-26T06:41:24.905Z,0.52
2018-03-26T06:42:22.055Z,0.96
2018-03-26T06:43:11.598Z,1.60
2018-03-26T06:44:09.392Z,1.52
2018-03-26T06:45:09.369Z,1.96
2018-03-26T06:46:09.297Z,0.84
2018-03-26T06:47:09.401Z,1.76
2018-03-26T06:48:09.397Z,1.52
2018-03-26T06:49:09.418Z,1.64
2018-03-26T06:50:09.394Z,1.60
2018-03-26T06:51:09.343Z,2.04
2018-03-26T06:52:09.514Z,2.12
2018-03-26T06:53:09.522Z,0.96
2018-03-26T06:54:09.520Z,1.76
2018-03-26T06:55:09.543Z,1.72
2018-03-26T06:56:09.539Z,1.64
2018-03-26T06:57:09.581Z,1.52
2018-03-26T06:58:09.558Z,0.80
2018-03-26T06:59:09.462Z,4.24
2018-03-26T07:00:20.849Z,3.36
2018-03-26T07:01:09.469Z,2.64
2018-03-26T07:02:09.483Z,2.56
2018-03-26T07:03:09.483Z,3.32
2018-03-26T07:04:09.488Z,3.00
2018-03-26T07:05:10.114Z,2.24
2018-03-26T07:06:09.499Z,1.80
2018-03-26T07:07:09.514Z,2.08
2018-03-26T07:08:09.522Z,2.76
2018-03-26T07:09:09.529Z,2.20
2018-03-26T07:10:09.540Z,2.72
2018-03-26T07:11:09.545Z,2.64
2018-03-26T07:12:09.546Z,2.08
2018-03-26T07:13:09.582Z,1.80
2018-03-26T07:14:09.449Z,1.64
2018-03-26T07:15:09.566Z,1.52
2018-03-26T07:16:25.039Z,2.28
2018-03-26T07:17:09.960Z,3.52
2018-03-26T07:18:09.488Z,3.36
2018-03-26T07:19:22.548Z,2.72
2018-03-26T07:20:23.223Z,2.40
2018-03-26T07:21:23.194Z,2.48
2018-03-26T07:22:25.393Z,2.00
2018-03-26T07:23:21.175Z,3.84
2018-03-26T07:24:20.676Z,0.84
2018-03-26T07:25:26.599Z,2.80
2018-03-26T07:26:20.365Z,2.44
2018-03-26T07:27:25.406Z,0.80
2018-03-26T07:28:18.910Z,3.72
2018-03-26T07:29:09.460Z,2.60
2018-03-26T07:30:09.483Z,3.96
2018-03-26T07:31:09.497Z,2.28
2018-03-26T07:32:09.483Z,2.24
2018-03-26T07:33:09.501Z,5.08
2018-03-26T07:34:23.110Z,1.56
2018-03-26T07:35:09.504Z,3.28
2018-03-26T07:36:09.634Z,1.92
2018-03-26T07:37:09.530Z,1.64
2018-03-26T07:38:09.538Z,2.68
2018-03-26T07:39:09.545Z,4.24
2018-03-26T07:40:09.563Z,3.84
2018-03-26T07:41:09.607Z,4.88
2018-03-26T07:42:09.567Z,4.88
2018-03-26T07:43:09.595Z,3.08
2018-03-26T07:44:09.577Z,2.24
2018-03-26T07:45:17.090Z,4.00
2018-03-26T07:46:09.494Z,3.84
2018-03-26T07:47:12.578Z,3.92
2018-03-26T07:48:09.509Z,3.16
2018-03-26T07:49:09.520Z,3.76
2018-03-26T07:50:09.546Z,4.52
2018-03-26T07:51:09.338Z,3.80
2018-03-26T07:52:09.547Z,4.00
2018-03-26T07:53:09.182Z,3.48
2018-03-26T07:54:09.554Z,4.44
2018-03-26T07:55:09.578Z,4.08
2018-03-26T07:56:09.656Z,3.88
2018-03-26T07:57:09.564Z,3.80
2018-03-26T07:58:09.586Z,4.00
2018-03-26T07:59:09.588Z,4.68
2018-03-26T08:00:10.619Z,5.12
2018-03-26T08:01:12.413Z,4.68
2018-03-26T08:02:09.514Z,4.84
2018-03-26T08:03:09.523Z,4.60
2018-03-26T08:04:10.544Z,3.52
2018-03-26T08:05:09.526Z,1.36
2018-03-26T08:06:09.545Z,2.92
2018-03-26T08:07:09.351Z,4.84
2018-03-26T08:08:09.548Z,4.92
2018-03-26T08:09:09.571Z,3.68
2018-03-26T08:10:09.567Z,3.00
2018-03-26T08:11:09.565Z,2.16
2018-03-26T08:12:09.595Z,2.28
2018-03-26T08:13:09.589Z,1.04
2018-03-26T08:14:09.636Z,3.52
2018-03-26T08:15:09.494Z,4.36
2018-03-26T08:16:09.607Z,3.20
2018-03-26T08:17:09.567Z,2.76
2018-03-26T08:18:09.430Z,1.28
2018-03-26T08:19:09.525Z,2.24
2018-03-26T08:20:28.662Z,1.20
2018-03-26T08:21:09.538Z,2.24
2018-03-26T08:22:14.963Z,3.04
2018-03-26T08:23:09.553Z,1.60
2018-03-26T08:24:09.316Z,2.64
2018-03-26T08:25:09.574Z,3.80
2018-03-26T08:26:09.170Z,2.52
2018-03-26T08:27:09.582Z,2.88
2018-03-26T08:28:09.496Z,2.36
2018-03-26T08:29:09.593Z,2.24
2018-03-26T08:30:09.614Z,1.00
2018-03-26T08:31:09.511Z,2.20
2018-03-26T08:32:09.525Z,3.28
2018-03-26T08:33:09.519Z,3.12
2018-03-26T08:34:09.442Z,3.08
2018-03-26T08:35:09.554Z,2.28
2018-03-26T08:36:09.543Z,4.20
2018-03-26T08:37:09.554Z,3.60
2018-03-26T08:38:09.566Z,2.68
2018-03-26T08:39:15.788Z,3.96
2018-03-26T08:40:09.573Z,3.12
2018-03-26T08:41:09.586Z,3.12
2018-03-26T08:42:09.628Z,2.92
2018-03-26T08:43:09.593Z,4.36
2018-03-26T08:44:09.607Z,3.00
2018-03-26T08:45:20.604Z,2.80
2018-03-26T08:46:17.536Z,2.16
2018-03-26T08:47:16.148Z,3.28
2018-03-26T08:48:23.903Z,2.08
2018-03-26T08:49:17.935Z,2.64
2018-03-26T08:50:21.197Z,1.24
2018-03-26T08:51:23.923Z,3.08
2018-03-26T08:52:21.381Z,2.72
2018-03-26T08:53:13.353Z,1.48
2018-03-26T08:54:09.577Z,2.80
2018-03-26T08:55:09.419Z,2.48
2018-03-26T08:56:09.603Z,2.36
2018-03-26T08:57:09.601Z,3.52
2018-03-26T08:58:09.610Z,1.96
2018-03-26T08:59:20.506Z,2.88
2018-03-26T09:00:10.641Z,2.16
2018-03-26T09:01:09.538Z,1.76
2018-03-26T09:02:09.526Z,1.76
2018-03-26T09:03:09.547Z,4.04
2018-03-26T09:04:09.554Z,2.96
2018-03-26T09:05:09.548Z,2.64
2018-03-26T09:06:09.557Z,4.56
2018-03-26T09:07:09.578Z,1.00
2018-03-26T09:08:09.573Z,2.84
2018-03-26T09:09:09.577Z,3.00
2018-03-26T09:10:09.600Z,2.00
2018-03-26T09:11:09.600Z,0.48
2018-03-26T09:12:38.816Z,0.72
2018-03-26T09:13:20.552Z,2.36
2018-03-26T09:14:10.671Z,2.16
2018-03-26T09:15:18.052Z,1.00
2018-03-26T09:16:17.877Z,2.56
2018-03-26T09:17:21.633Z,2.04
2018-03-26T09:18:13.676Z,2.20
2018-03-26T09:19:14.110Z,2.36
2018-03-26T09:20:12.557Z,2.76
2018-03-26T09:21:09.561Z,2.64
2018-03-26T09:22:09.575Z,2.32
2018-03-26T09:23:12.246Z,1.64
2018-03-26T09:24:09.609Z,2.60
2018-03-26T09:25:11.521Z,1.92
2018-03-26T09:26:09.448Z,2.40
2018-03-26T09:27:09.607Z,2.04
2018-03-26T09:28:09.615Z,1.96
2018-03-26T09:29:18.172Z,0.60
2018-03-26T09:30:12.726Z,0.80
2018-03-26T09:31:09.534Z,1.48
2018-03-26T09:32:09.548Z,4.32
2018-03-26T09:33:09.553Z,3.04
2018-03-26T09:34:09.563Z,2.16
2018-03-26T09:35:09.566Z,1.32
2018-03-26T09:36:09.622Z,4.88
2018-03-26T09:37:09.587Z,3.28
2018-03-26T09:38:09.593Z,2.12
2018-03-26T09:39:09.610Z,0.88
2018-03-26T09:40:09.603Z,0.76
2018-03-26T09:41:09.516Z,1.00
2018-03-26T09:42:09.627Z,1.44
2018-03-26T09:43:09.627Z,1.36
2018-03-26T09:44:09.638Z,1.48
2018-03-26T09:45:13.501Z,2.24
2018-03-26T09:46:10.727Z,4.04
2018-03-26T09:47:17.475Z,4.00
2018-03-26T09:48:09.559Z,2.32
2018-03-26T09:49:09.511Z,3.12
2018-03-26T09:50:09.488Z,2.08
2018-03-26T09:51:09.383Z,0.92
2018-03-26T09:52:09.590Z,0.80
2018-03-26T09:53:09.639Z,0.64
2018-03-26T09:54:09.597Z,1.84
2018-03-26T09:55:09.614Z,1.60
2018-03-26T09:56:09.609Z,1.64
2018-03-26T09:57:09.464Z,1.68
2018-03-26T09:58:09.634Z,1.24
2018-03-26T09:59:09.554Z,1.12
2018-03-26T10:00:23.457Z,2.52
2018-03-26T10:01:19.255Z,4.80
2018-03-26T10:02:09.586Z,5.04
2018-03-26T10:03:12.686Z,3.92
2018-03-26T10:04:09.470Z,3.24
2018-03-26T10:05:09.579Z,4.12
2018-03-26T10:06:09.632Z,6.24
2018-03-26T10:07:09.497Z,4.84
2018-03-26T10:08:09.596Z,3.72
2018-03-26T10:09:09.600Z,4.24
2018-03-26T10:10:09.614Z,4.20
2018-03-26T10:11:09.631Z,2.96
2018-03-26T10:12:09.630Z,2.16
2018-03-26T10:13:09.738Z,2.60
2018-03-26T10:14:09.701Z,5.88
2018-03-26T10:15:09.650Z,4.48
2018-03-26T10:16:09.654Z,4.28
2018-03-26T10:17:09.566Z,2.32
2018-03-26T10:18:09.574Z,5.60
2018-03-26T10:19:09.569Z,4.56
2018-03-26T10:20:09.593Z,2.64
2018-03-26T10:21:09.549Z,0.84
2018-03-26T10:22:09.606Z,1.64
2018-03-26T10:23:09.505Z,1.40
2018-03-26T10:24:09.608Z,1.04
2018-03-26T10:25:09.623Z,1.56
2018-03-26T10:26:09.626Z,0.92
2018-03-26T10:27:09.692Z,4.16
2018-03-26T10:28:09.510Z,5.24
2018-03-26T10:29:09.698Z,5.40
2018-03-26T10:30:09.657Z,3.36
2018-03-26T10:31:09.675Z,4.96
2018-03-26T10:32:14.062Z,4.48
2018-03-26T10:33:10.182Z,3.24
2018-03-26T10:34:12.021Z,1.20
2018-03-26T10:35:11.498Z,1.92
2018-03-26T10:36:10.902Z,1.40
2018-03-26T10:37:13.675Z,3.68
2018-03-26T10:38:12.142Z,3.08
2018-03-26T10:39:10.464Z,4.32
2018-03-26T10:40:12.050Z,4.36
2018-03-26T10:41:12.294Z,3.68
2018-03-26T10:42:14.362Z,0.40
2018-03-26T10:43:09.561Z,1.08
2018-03-26T10:44:09.661Z,2.04
2018-03-26T10:45:09.666Z,4.84
2018-03-26T10:46:09.684Z,4.44
2018-03-26T10:47:09.749Z,4.96
2018-03-26T10:48:09.589Z,2.92
2018-03-26T10:49:09.495Z,4.52
2018-03-26T10:50:09.299Z,3.96
2018-03-26T10:51:09.642Z,3.68
2018-03-26T10:52:09.610Z,4.04
2018-03-26T10:53:09.670Z,4.24
2018-03-26T10:54:09.640Z,5.28
2018-03-26T10:55:09.643Z,2.44
2018-03-26T10:56:09.642Z,2.16
2018-03-26T10:57:09.662Z,0.68
2018-03-26T10:58:09.669Z,0.48
2018-03-26T10:59:09.518Z,0.16
2018-03-26T11:00:10.735Z,0.92
2018-03-26T11:01:09.790Z,3.16
2018-03-26T11:02:09.697Z,2.56
2018-03-26T11:03:09.615Z,3.48
2018-03-26T11:04:09.613Z,2.48
2018-03-26T11:05:09.607Z,3.04
2018-03-26T11:06:09.614Z,3.60
2018-03-26T11:07:09.626Z,4.64
2018-03-26T11:08:09.626Z,5.44
2018-03-26T11:09:12.550Z,3.64
2018-03-26T11:10:09.650Z,2.80
2018-03-26T11:11:09.711Z,1.16
2018-03-26T11:12:09.657Z,1.92
2018-03-26T11:13:09.667Z,2.64
2018-03-26T11:14:09.671Z,1.72
2018-03-26T11:15:09.687Z,2.20
2018-03-26T11:16:09.680Z,0.56
2018-03-26T11:17:09.690Z,0.80
2018-03-26T11:18:09.622Z,3.80
2018-03-26T11:19:09.623Z,1.92
2018-03-26T11:20:12.333Z,3.12
2018-03-26T11:21:09.630Z,4.20
2018-03-26T11:22:09.639Z,6.56
2018-03-26T11:23:09.640Z,6.84
2018-03-26T11:24:09.640Z,7.32
2018-03-26T11:25:09.655Z,5.28
2018-03-26T11:26:09.657Z,6.00
2018-03-26T11:27:09.661Z,3.52
2018-03-26T11:28:09.682Z,2.36
2018-03-26T11:29:12.447Z,0.88
2018-03-26T11:30:09.614Z,2.48
2018-03-26T11:31:12.566Z,2.08
2018-03-26T11:32:09.694Z,1.68
2018-03-26T11:33:09.518Z,2.00
2018-03-26T11:34:09.638Z,6.84
2018-03-26T11:35:09.645Z,3.28
2018-03-26T11:36:09.548Z,1.76
2018-03-26T11:37:09.605Z,3.72
2018-03-26T11:38:09.541Z,4.88
2018-03-26T11:39:09.553Z,4.04
2018-03-26T11:40:09.653Z,2.28
2018-03-26T11:41:09.465Z,5.24
2018-03-26T11:42:09.578Z,6.20
2018-03-26T11:43:09.592Z,0.96
2018-03-26T11:44:09.684Z,1.48
2018-03-26T11:45:09.698Z,1.12
2018-03-26T11:46:09.746Z,2.20
2018-03-26T11:47:09.621Z,5.08
2018-03-26T11:48:09.626Z,3.56
2018-03-26T11:49:09.534Z,2.04
2018-03-26T11:50:09.543Z,0.32
2018-03-26T11:51:09.552Z,0.80
2018-03-26T11:52:09.558Z,1.80
2018-03-26T11:53:09.558Z,3.40
2018-03-26T11:54:09.661Z,7.72
2018-03-26T11:55:09.670Z,4.00
2018-03-26T11:56:09.670Z,8.96
2018-03-26T11:57:09.691Z,7.36
2018-03-26T11:58:09.698Z,8.40
2018-03-26T11:59:09.703Z,3.04
2018-03-26T12:00:11.135Z,4.44
2018-03-26T12:01:09.702Z,6.44
2018-03-26T12:02:09.536Z,5.20
2018-03-26T12:03:09.536Z,6.68
2018-03-26T12:04:09.734Z,2.48
2018-03-26T12:05:09.651Z,1.36
2018-03-26T12:06:09.665Z,4.80
2018-03-26T12:07:09.566Z,5.44
2018-03-26T12:08:09.573Z,4.96
2018-03-26T12:09:09.457Z,5.88
2018-03-26T12:10:09.571Z,3.72
2018-03-26T12:11:09.689Z,2.60
2018-03-26T12:12:09.686Z,1.12
2018-03-26T12:13:09.698Z,3.28
2018-03-26T12:14:09.697Z,3.20
2018-03-26T12:15:09.727Z,7.00
2018-03-26T12:16:09.748Z,6.28
2018-03-26T12:17:09.727Z,1.84
2018-03-26T12:18:09.729Z,1.32
2018-03-26T12:19:09.733Z,4.20
2018-03-26T12:20:09.680Z,2.24
2018-03-26T12:21:09.683Z,2.80
2018-03-26T12:22:09.595Z,1.88
2018-03-26T12:23:09.666Z,1.92
2018-03-26T12:24:09.707Z,1.96
2018-03-26T12:25:09.683Z,2.52
2018-03-26T12:26:09.697Z,2.84
2018-03-26T12:27:09.698Z,0.72
2018-03-26T12:28:09.710Z,3.44
2018-03-26T12:29:09.718Z,2.72
2018-03-26T12:30:09.713Z,2.36
2018-03-26T12:31:09.713Z,2.00
2018-03-26T12:32:09.473Z,2.88
2018-03-26T12:33:09.747Z,4.44
2018-03-26T12:34:09.746Z,5.40
2018-03-26T12:35:09.665Z,3.92
2018-03-26T12:36:09.669Z,4.28
2018-03-26T12:37:09.674Z,0.52
2018-03-26T12:38:09.675Z,2.60
2018-03-26T12:39:09.688Z,4.44
2018-03-26T12:40:09.590Z,1.92
2018-03-26T12:41:09.591Z,1.96
2018-03-26T12:42:09.492Z,3.40
2018-03-26T12:43:09.710Z,5.20
2018-03-26T12:44:09.510Z,2.64
2018-03-26T12:45:09.734Z,3.80
2018-03-26T12:46:09.721Z,7.48
2018-03-26T12:47:09.737Z,3.08
2018-03-26T12:48:09.741Z,0.68
2018-03-26T12:49:09.740Z,1.40
2018-03-26T12:50:09.753Z,1.40
2018-03-26T12:51:09.677Z,4.08
2018-03-26T12:52:12.436Z,5.12
2018-03-26T12:53:09.695Z,3.04
2018-03-26T12:54:09.598Z,3.40
2018-03-26T12:55:09.710Z,3.36
2018-03-26T12:56:09.726Z,4.28
2018-03-26T12:57:09.706Z,2.00
2018-03-26T12:58:09.639Z,2.68
2018-03-26T12:59:09.726Z,2.80
2018-03-26T13:00:10.849Z,2.48
2018-03-26T13:01:09.738Z,2.76
2018-03-26T13:02:09.734Z,3.64
2018-03-26T13:03:09.494Z,3.00
2018-03-26T13:04:09.752Z,1.52
2018-03-26T13:05:09.767Z,3.32
2018-03-26T13:06:09.678Z,2.32
2018-03-26T13:07:09.714Z,1.56
2018-03-26T13:08:09.699Z,2.32
2018-03-26T13:09:09.706Z,2.68
2018-03-26T13:10:09.717Z,2.92
2018-03-26T13:11:09.730Z,1.92
2018-03-26T13:12:09.733Z,2.08
2018-03-26T13:13:09.723Z,2.84
2018-03-26T13:14:09.728Z,1.84
2018-03-26T13:15:09.839Z,1.80
2018-03-26T13:16:09.768Z,3.08
2018-03-26T13:17:09.750Z,2.04
2018-03-26T13:18:09.763Z,2.96